createdAt,value
2024-01-17T00:00:41.044Z,1.20
2024-01-17T00:05:42.907Z,1.19
2024-01-17T00:10:44.709Z,1.16
2024-01-17T00:15:46.515Z,1.08
2024-01-17T00:20:48.523Z,0.90
2024-01-17T00:25:50.400Z,1.03
2024-01-17T00:30:52.342Z,1.07
2024-01-17T00:35:54.467Z,1.07
2024-01-17T00:40:56.546Z,0.84
2024-01-17T00:45:58.349Z,0.75
2024-01-17T00:51:00.400Z,0.79
2024-01-17T00:56:02.371Z,0.59
2024-01-17T01:01:04.411Z,1.04
2024-01-17T01:06:06.561Z,0.89
2024-01-17T01:11:08.977Z,0.95
2024-01-17T01:16:11.530Z,0.94
2024-01-17T01:21:13.535Z,0.89
2024-01-17T01:26:15.897Z,0.92
2024-01-17T01:31:17.601Z,0.91
2024-01-17T01:36:19.299Z,0.94
2024-01-17T01:41:21.387Z,0.69
2024-01-17T01:46:29.018Z,0.79
2024-01-17T01:51:30.836Z,0.87
2024-01-17T01:56:36.402Z,0.62
2024-01-17T02:01:38.408Z,0.54
2024-01-17T02:06:41.556Z,0.54
2024-01-17T02:11:43.663Z,0.47
2024-01-17T02:16:45.868Z,0.96
2024-01-17T02:21:48.001Z,1.00
2024-01-17T02:26:49.921Z,0.32
2024-01-17T02:31:52.543Z,-0.15
2024-01-17T02:36:54.536Z,0.16
2024-01-17T02:41:56.365Z,0.27
2024-01-17T02:46:58.221Z,-0.34
2024-01-17T02:51:59.975Z,0.47
2024-01-17T02:57:01.998Z,-0.29
2024-01-17T03:02:04.027Z,0.53
2024-01-17T03:07:05.892Z,0.66
2024-01-17T03:12:07.914Z,0.43
2024-01-17T03:17:09.854Z,0.21
2024-01-17T03:22:11.706Z,0.26
2024-01-17T03:27:14.645Z,-0.58
2024-01-17T03:32:16.663Z,0.50
2024-01-17T03:37:19.879Z,0.51
2024-01-17T03:42:21.762Z,0.64
2024-01-17T03:47:23.763Z,0.81
2024-01-17T03:52:25.493Z,-0.09
2024-01-17T03:57:29.045Z,0.49
2024-01-17T04:02:31.072Z,-0.49
2024-01-17T04:07:32.985Z,0.71
2024-01-17T04:12:34.670Z,0.34
2024-01-17T04:17:37.285Z,0.67
2024-01-17T04:22:39.354Z,-0.06
2024-01-17T04:27:41.193Z,0.65
2024-01-17T04:32:43.259Z,0.62
2024-01-17T04:37:45.203Z,-0.96
2024-01-17T04:42:50.343Z,0.11
2024-01-17T04:47:52.480Z,0.58
2024-01-17T04:52:54.359Z,0.44
2024-01-17T04:57:56.219Z,0.42
2024-01-17T05:02:57.986Z,0.56
2024-01-17T05:07:59.845Z,0.50
2024-01-17T05:13:01.917Z,0.75
2024-01-17T05:18:08.425Z,0.77
2024-01-17T05:23:10.416Z,0.72
2024-01-17T05:28:12.203Z,0.77
2024-01-17T05:33:15.140Z,0.73
2024-01-17T05:38:17.211Z,0.73
2024-01-17T05:43:18.979Z,0.67
2024-01-17T05:48:20.989Z,0.89
2024-01-17T05:53:23.035Z,0.96
2024-01-17T05:58:24.779Z,0.61
2024-01-17T06:03:26.733Z,0.75
2024-01-17T06:08:29.677Z,0.72
2024-01-17T06:13:31.688Z,0.67
2024-01-17T06:18:33.870Z,0.61
2024-01-17T06:23:36.054Z,0.63
2024-01-17T06:28:37.863Z,0.90
2024-01-17T06:33:40.808Z,0.80
2024-01-17T06:38:42.881Z,0.82
2024-01-17T06:43:46.288Z,0.83
2024-01-17T06:48:49.082Z,1.00
2024-01-17T06:53:51.250Z,0.77
2024-01-17T06:58:53.189Z,1.03
2024-01-17T07:03:55.207Z,0.96
2024-01-17T07:08:57.253Z,-1.26
2024-01-17T07:13:59.092Z,-1.17
2024-01-17T07:19:01.622Z,-1.52
2024-01-17T07:24:03.735Z,-1.55
2024-01-17T07:29:06.357Z,-1.55
2024-01-17T07:34:08.448Z,-1.74
2024-01-17T07:39:12.473Z,-1.57
2024-01-17T07:44:15.421Z,-2.09
2024-01-17T07:49:17.537Z,-1.89
2024-01-17T07:54:19.657Z,-1.66
2024-01-17T07:59:22.084Z,-1.67
2024-01-17T08:04:24.451Z,-1.58
2024-01-17T08:09:29.730Z,-1.69
2024-01-17T08:14:31.750Z,-0.97
2024-01-17T08:19:34.886Z,-1.48
2024-01-17T08:24:36.893Z,-1.77
2024-01-17T08:29:38.734Z,-2.22
2024-01-17T08:34:40.565Z,-1.91
2024-01-17T08:39:45.372Z,-1.59
2024-01-17T08:44:47.271Z,-2.40
2024-01-17T08:49:49.393Z,-1.88
2024-01-17T08:54:51.318Z,-1.69
2024-01-17T08:59:53.378Z,-1.76
2024-01-17T09:04:55.344Z,-1.90
2024-01-17T09:09:58.028Z,1.93
2024-01-17T09:15:00.494Z,-0.52
2024-01-17T09:20:05.765Z,-0.51
2024-01-17T09:25:09.550Z,-0.43
2024-01-17T09:30:11.867Z,-1.49
2024-01-17T09:35:14.062Z,-1.26
2024-01-17T09:40:16.230Z,-1.68
2024-01-17T09:45:19.569Z,-1.38
2024-01-17T09:50:21.609Z,2.36
2024-01-17T09:55:25.215Z,3.01
2024-01-17T10:00:28.754Z,0.69
2024-01-17T10:05:36.865Z,0.34
2024-01-17T10:10:42.323Z,2.86
2024-01-17T10:15:48.113Z,3.24
2024-01-17T10:20:50.425Z,-0.14
2024-01-17T10:25:52.645Z,-0.46
2024-01-17T10:30:54.586Z,-0.65
2024-01-17T10:35:56.666Z,-1.29
2024-01-17T10:41:08.166Z,-1.28
2024-01-17T10:46:11.190Z,-0.97
2024-01-17T10:51:22.409Z,-1.18
2024-01-17T10:56:28.107Z,-1.08
2024-01-17T11:01:39.151Z,-1.28
2024-01-17T11:06:42.433Z,-1.01
2024-01-17T11:11:44.422Z,-1.37
2024-01-17T11:16:50.138Z,-0.96
2024-01-17T11:21:52.286Z,-1.05
2024-01-17T11:27:06.391Z,-0.73
2024-01-17T11:32:18.169Z,3.34
2024-01-17T11:37:40.038Z,2.13
2024-01-17T11:42:42.049Z,-0.58
2024-01-17T11:47:53.974Z,-0.80
2024-01-17T11:52:56.715Z,-0.63
2024-01-17T11:58:00.879Z,-0.80
2024-01-17T12:03:03.953Z,2.03
2024-01-17T12:08:06.624Z,2.15
2024-01-17T12:13:08.910Z,0.31
2024-01-17T12:18:11.355Z,-0.51
2024-01-17T12:23:13.167Z,-0.41
2024-01-17T12:28:19.934Z,-0.69
2024-01-17T12:33:25.957Z,-0.77
2024-01-17T12:38:30.221Z,-0.75
2024-01-17T12:43:36.779Z,-0.62
2024-01-17T12:48:38.875Z,-0.53
2024-01-17T12:53:43.121Z,2.69
2024-01-17T12:58:45.281Z,0.48
2024-01-17T13:04:00.643Z,0.67
2024-01-17T13:09:33.084Z,3.48
2024-01-17T13:14:35.264Z,0.42
2024-01-17T13:19:39.217Z,1.35
2024-01-17T13:24:41.466Z,0.23
2024-01-17T13:29:43.472Z,0.07
2024-01-17T13:34:45.746Z,0.55
2024-01-17T13:39:47.789Z,3.04
2024-01-17T13:44:49.979Z,4.31
2024-01-17T13:49:53.612Z,4.31
2024-01-17T13:54:56.884Z,1.38
2024-01-17T13:59:58.837Z,0.92
2024-01-17T14:05:00.598Z,1.57
2024-01-17T14:10:02.509Z,1.37
2024-01-17T14:15:05.797Z,1.58
2024-01-17T14:20:17.863Z,1.18
2024-01-17T14:25:20.065Z,0.28
2024-01-17T14:30:22.326Z,0.32
2024-01-17T14:35:25.120Z,0.76
2024-01-17T14:40:27.195Z,2.00
2024-01-17T14:45:29.326Z,3.47
2024-01-17T14:50:31.580Z,2.68
2024-01-17T14:55:33.944Z,2.27
2024-01-17T15:00:35.807Z,2.36
2024-01-17T15:05:37.953Z,2.40
2024-01-17T15:10:40.776Z,2.38
2024-01-17T15:15:42.783Z,4.12
2024-01-17T15:20:45.100Z,1.84
2024-01-17T15:25:47.112Z,1.40
2024-01-17T15:30:49.785Z,0.30
2024-01-17T15:35:52.568Z,1.06
2024-01-17T15:40:57.102Z,0.12
2024-01-17T15:46:00.983Z,1.08
2024-01-17T15:51:04.827Z,0.68
2024-01-17T15:56:06.879Z,0.78
2024-01-17T16:01:09.432Z,0.76
2024-01-17T16:06:11.568Z,0.91
2024-01-17T16:11:13.591Z,0.83
2024-01-17T16:16:15.368Z,0.75
2024-01-17T16:21:17.209Z,0.92
2024-01-17T16:26:19.316Z,0.83
2024-01-17T16:31:21.422Z,0.77
2024-01-17T16:36:23.658Z,2.77
2024-01-17T16:41:25.571Z,3.95
2024-01-17T16:46:27.433Z,4.08
2024-01-17T16:51:29.237Z,3.97
2024-01-17T16:56:31.285Z,3.84
2024-01-17T17:01:33.459Z,4.26
2024-01-17T17:06:35.336Z,4.18
2024-01-17T17:11:37.112Z,2.83
2024-01-17T17:16:38.847Z,1.01
2024-01-17T17:21:40.891Z,0.62
2024-01-17T17:26:43.453Z,0.18
2024-01-17T17:31:45.350Z,1.02
2024-01-17T17:36:47.199Z,1.58
2024-01-17T17:41:49.242Z,2.87
2024-01-17T17:46:51.455Z,3.58
2024-01-17T17:51:53.211Z,2.10
2024-01-17T17:56:55.294Z,1.73
2024-01-17T18:01:57.382Z,0.43
2024-01-17T18:06:59.344Z,0.24
2024-01-17T18:12:01.335Z,0.26
2024-01-17T18:17:06.431Z,0.18
2024-01-17T18:22:08.625Z,0.59
2024-01-17T18:27:10.617Z,0.74
2024-01-17T18:32:12.446Z,0.69
2024-01-17T18:37:14.258Z,-0.14
2024-01-17T18:42:16.092Z,0.34
2024-01-17T18:47:18.052Z,0.15
2024-01-17T18:52:19.712Z,0.23
2024-01-17T18:57:22.045Z,0.94
2024-01-17T19:02:24.761Z,-0.40
2024-01-17T19:07:26.596Z,-0.16
2024-01-17T19:12:28.611Z,-0.06
2024-01-17T19:17:30.790Z,-0.08
2024-01-17T19:22:34.274Z,-0.09
2024-01-17T19:27:37.641Z,-0.31
2024-01-17T19:32:40.107Z,-0.16
2024-01-17T19:37:44.619Z,-0.31
2024-01-17T19:42:46.459Z,-0.49
2024-01-17T19:47:48.303Z,-0.51
2024-01-17T19:52:50.387Z,-0.54
2024-01-17T19:57:52.495Z,-0.41
2024-01-17T20:02:54.197Z,-0.30
2024-01-17T20:07:57.023Z,-0.33
2024-01-17T20:13:01.851Z,-0.30
2024-01-17T20:18:04.038Z,-0.29
2024-01-17T20:23:05.979Z,-0.28
2024-01-17T20:28:07.956Z,-0.67
2024-01-17T20:33:09.918Z,-0.69
2024-01-17T20:38:11.808Z,-0.38
2024-01-17T20:43:13.970Z,-0.33
2024-01-17T20:48:16.033Z,-0.58
2024-01-17T20:53:17.719Z,-0.36
2024-01-17T20:58:19.573Z,-0.31
2024-01-17T21:03:21.612Z,-0.27
2024-01-17T21:08:23.456Z,-0.34
2024-01-17T21:13:25.220Z,-0.38
2024-01-17T21:18:28.262Z,-0.36
2024-01-17T21:23:30.805Z,-0.39
2024-01-17T21:28:32.764Z,-0.36
2024-01-17T21:33:34.800Z,-0.52
2024-01-17T21:38:37.038Z,-0.60
2024-01-17T21:43:38.796Z,-0.37
2024-01-17T21:48:45.075Z,-0.61
2024-01-17T21:53:47.497Z,-0.46
2024-01-17T21:58:49.586Z,-0.32
2024-01-17T22:03:51.364Z,-0.37
2024-01-17T22:08:58.886Z,-0.33
2024-01-17T22:14:01.517Z,-0.37
2024-01-17T22:19:03.684Z,-0.96
2024-01-17T22:24:06.412Z,-0.54
2024-01-17T22:29:09.937Z,-0.44
2024-01-17T22:34:11.953Z,-0.43
2024-01-17T22:39:15.938Z,-0.40
2024-01-17T22:44:19.257Z,-0.38
2024-01-17T22:49:23.077Z,-0.41
2024-01-17T22:54:24.958Z,-0.48
2024-01-17T22:59:26.790Z,-0.55
2024-01-17T23:04:28.949Z,-0.40
2024-01-17T23:09:31.162Z,-0.57
2024-01-17T23:14:32.961Z,-0.44
2024-01-17T23:19:35.007Z,-0.65
2024-01-17T23:24:37.137Z,-0.36
2024-01-17T23:29:38.939Z,-0.39
2024-01-17T23:34:41.030Z,-0.38
2024-01-17T23:39:42.893Z,-0.42
2024-01-17T23:44:45.879Z,-0.32
2024-01-17T23:49:47.887Z,-0.61
2024-01-17T23:54:50.007Z,-0.41
2024-01-17T23:59:51.784Z,-0.34
